Ayrshire, Indiana
Current Conditions -  °F | °C
As of 10:35 PM on Monday 20 Oct 2014 (Local Time) from KHNB Reporting Station
Clear Clear  
Wind Chill: 55°   Ceiling: Unl
Heat Index: 55°   Visibility: 10mi
Dew Point: 43°   Wind: 5mph
Humidity: 63%   Direction: 350°N
Pressure: 29.98"   Gusts: NA
Location:  38.3488°N, 87.2217°W
Report Text: KHNB 210335Z AUTO 35004KT 10SM CLR 13/06 A2998 RMK AO1
Loading
Personal Weather Stations






























Interactive Weather Map
Tropical Storm Tracking
New forecast layout! Learn more

10-Day Weather Forecast

Advertisements
Track Severe Weather on mobile